sensor_id;sensor_type;location;lat;lon;timestamp;P1;durP1;ratioP1;P2;durP2;ratioP2
5379;SDS011;2713;42.680;23.310;2022-08-19T00:00:49;10.47;;;9.57;;
5379;SDS011;2713;42.680;23.310;2022-08-19T00:03:16;10.77;;;9.77;;
5379;SDS011;2713;42.680;23.310;2022-08-19T00:05:43;12.00;;;9.63;;
5379;SDS011;2713;42.680;23.310;2022-08-19T00:08:12;10.23;;;9.30;;
5379;SDS011;2713;42.680;23.310;2022-08-19T00:10:38;11.83;;;10.63;;
5379;SDS011;2713;42.680;23.310;2022-08-19T00:13:05;15.40;;;10.00;;
5379;SDS011;2713;42.680;23.310;2022-08-19T00:15:32;10.60;;;9.50;;
5379;SDS011;2713;42.680;23.310;2022-08-19T00:17:59;9.70;;;8.90;;
5379;SDS011;2713;42.680;23.310;2022-08-19T00:20:26;11.13;;;9.23;;
5379;SDS011;2713;42.680;23.310;2022-08-19T00:22:53;10.40;;;9.30;;
5379;SDS011;2713;42.680;23.310;2022-08-19T00:25:22;10.30;;;9.30;;
5379;SDS011;2713;42.680;23.310;2022-08-19T00:27:48;10.90;;;9.60;;
5379;SDS011;2713;42.680;23.310;2022-08-19T00:30:15;10.50;;;9.50;;
5379;SDS011;2713;42.680;23.310;2022-08-19T00:32:42;11.87;;;9.97;;
5379;SDS011;2713;42.680;23.310;2022-08-19T00:35:09;11.03;;;9.97;;
5379;SDS011;2713;42.680;23.310;2022-08-19T00:37:36;12.13;;;9.67;;
5379;SDS011;2713;42.680;23.310;2022-08-19T00:40:09;10.40;;;9.40;;
5379;SDS011;2713;42.680;23.310;2022-08-19T00:42:39;10.40;;;9.30;;
5379;SDS011;2713;42.680;23.310;2022-08-19T00:45:09;10.23;;;9.30;;
5379;SDS011;2713;42.680;23.310;2022-08-19T00:47:39;9.93;;;8.90;;
5379;SDS011;2713;42.680;23.310;2022-08-19T00:50:06;11.10;;;9.70;;
5379;SDS011;2713;42.680;23.310;2022-08-19T00:52:36;10.17;;;9.17;;
5379;SDS011;2713;42.680;23.310;2022-08-19T00:55:11;10.90;;;9.77;;
5379;SDS011;2713;42.680;23.310;2022-08-19T00:57:43;15.53;;;10.43;;
5379;SDS011;2713;42.680;23.310;2022-08-19T01:00:13;11.07;;;9.47;;
5379;SDS011;2713;42.680;23.310;2022-08-19T01:02:42;11.73;;;9.20;;
5379;SDS011;2713;42.680;23.310;2022-08-19T01:05:11;11.10;;;9.90;;
5379;SDS011;2713;42.680;23.310;2022-08-19T01:07:44;11.23;;;8.93;;
5379;SDS011;2713;42.680;23.310;2022-08-19T01:10:12;15.57;;;9.87;;
5379;SDS011;2713;42.680;23.310;2022-08-19T01:12:42;10.70;;;9.70;;
5379;SDS011;2713;42.680;23.310;2022-08-19T01:15:10;13.63;;;9.80;;
5379;SDS011;2713;42.680;23.310;2022-08-19T01:17:40;11.03;;;10.00;;
5379;SDS011;2713;42.680;23.310;2022-08-19T01:20:10;11.63;;;10.37;;
5379;SDS011;2713;42.680;23.310;2022-08-19T01:22:40;11.47;;;10.27;;
5379;SDS011;2713;42.680;23.310;2022-08-19T01:25:10;13.63;;;10.87;;
5379;SDS011;2713;42.680;23.310;2022-08-19T01:27:39;12.17;;;10.30;;
5379;SDS011;2713;42.680;23.310;2022-08-19T01:30:07;14.80;;;10.50;;
5379;SDS011;2713;42.680;23.310;2022-08-19T01:32:35;12.77;;;10.37;;
5379;SDS011;2713;42.680;23.310;2022-08-19T01:35:02;13.90;;;10.80;;
5379;SDS011;2713;42.680;23.310;2022-08-19T01:37:40;13.20;;;9.83;;
5379;SDS011;2713;42.680;23.310;2022-08-19T01:40:10;11.20;;;10.00;;
5379;SDS011;2713;42.680;23.310;2022-08-19T01:42:37;12.10;;;9.53;;
5379;SDS011;2713;42.680;23.310;2022-08-19T01:45:04;10.90;;;9.83;;
5379;SDS011;2713;42.680;23.310;2022-08-19T01:47:33;11.53;;;9.80;;
5379;SDS011;2713;42.680;23.310;2022-08-19T01:50:00;10.37;;;9.37;;
5379;SDS011;2713;42.680;23.310;2022-08-19T01:52:27;11.07;;;9.33;;
5379;SDS011;2713;42.680;23.310;2022-08-19T01:54:55;11.10;;;9.90;;
5379;SDS011;2713;42.680;23.310;2022-08-19T01:57:22;10.73;;;9.57;;
5379;SDS011;2713;42.680;23.310;2022-08-19T01:59:49;13.40;;;9.90;;
5379;SDS011;2713;42.680;23.310;2022-08-19T02:02:16;10.97;;;9.97;;
5379;SDS011;2713;42.680;23.310;2022-08-19T02:04:43;11.20;;;10.20;;
5379;SDS011;2713;42.680;23.310;2022-08-19T02:07:10;10.87;;;9.77;;
5379;SDS011;2713;42.680;23.310;2022-08-19T02:09:37;12.27;;;10.10;;
5379;SDS011;2713;42.680;23.310;2022-08-19T02:12:06;11.37;;;10.17;;
5379;SDS011;2713;42.680;23.310;2022-08-19T02:14:34;14.33;;;10.73;;
5379;SDS011;2713;42.680;23.310;2022-08-19T02:17:01;12.93;;;10.07;;
5379;SDS011;2713;42.680;23.310;2022-08-19T02:19:28;12.00;;;9.70;;
5379;SDS011;2713;42.680;23.310;2022-08-19T02:21:57;11.77;;;10.20;;
5379;SDS011;2713;42.680;23.310;2022-08-19T02:24:24;10.70;;;9.70;;
5379;SDS011;2713;42.680;23.310;2022-08-19T02:26:51;12.10;;;10.27;;
5379;SDS011;2713;42.680;23.310;2022-08-19T02:29:19;11.03;;;9.97;;
5379;SDS011;2713;42.680;23.310;2022-08-19T02:31:47;12.97;;;10.30;;
5379;SDS011;2713;42.680;23.310;2022-08-19T02:34:14;11.80;;;10.57;;
5379;SDS011;2713;42.680;23.310;2022-08-19T02:36:40;11.10;;;9.90;;
5379;SDS011;2713;42.680;23.310;2022-08-19T02:39:07;11.60;;;10.40;;
5379;SDS011;2713;42.680;23.310;2022-08-19T02:41:33;11.00;;;9.90;;
5379;SDS011;2713;42.680;23.310;2022-08-19T02:44:01;11.80;;;9.63;;
5379;SDS011;2713;42.680;23.310;2022-08-19T02:46:31;13.57;;;10.23;;
5379;SDS011;2713;42.680;23.310;2022-08-19T02:48:59;13.73;;;10.67;;
5379;SDS011;2713;42.680;23.310;2022-08-19T02:51:29;12.40;;;10.10;;
5379;SDS011;2713;42.680;23.310;2022-08-19T02:54:00;14.40;;;11.00;;
5379;SDS011;2713;42.680;23.310;2022-08-19T02:56:27;16.83;;;11.40;;
5379;SDS011;2713;42.680;23.310;2022-08-19T02:58:54;16.40;;;11.03;;
5379;SDS011;2713;42.680;23.310;2022-08-19T03:01:22;15.30;;;10.80;;
5379;SDS011;2713;42.680;23.310;2022-08-19T03:03:51;14.80;;;11.27;;
5379;SDS011;2713;42.680;23.310;2022-08-19T03:06:18;12.90;;;10.90;;
5379;SDS011;2713;42.680;23.310;2022-08-19T03:08:46;11.70;;;10.60;;
5379;SDS011;2713;42.680;23.310;2022-08-19T03:11:15;11.70;;;10.20;;
5379;SDS011;2713;42.680;23.310;2022-08-19T03:13:43;15.90;;;10.77;;
5379;SDS011;2713;42.680;23.310;2022-08-19T03:16:10;11.40;;;10.40;;
5379;SDS011;2713;42.680;23.310;2022-08-19T03:18:37;13.60;;;10.33;;
5379;SDS011;2713;42.680;23.310;2022-08-19T03:21:06;11.90;;;10.70;;
5379;SDS011;2713;42.680;23.310;2022-08-19T03:23:34;11.97;;;10.60;;
5379;SDS011;2713;42.680;23.310;2022-08-19T03:26:03;12.63;;;11.07;;
5379;SDS011;2713;42.680;23.310;2022-08-19T03:28:32;11.80;;;10.67;;
5379;SDS011;2713;42.680;23.310;2022-08-19T03:31:00;11.80;;;10.60;;
5379;SDS011;2713;42.680;23.310;2022-08-19T03:33:29;13.50;;;11.40;;
5379;SDS011;2713;42.680;23.310;2022-08-19T03:36:06;16.63;;;10.80;;
5379;SDS011;2713;42.680;23.310;2022-08-19T03:38:36;12.43;;;10.83;;
5379;SDS011;2713;42.680;23.310;2022-08-19T03:41:05;12.87;;;11.20;;
5379;SDS011;2713;42.680;23.310;2022-08-19T03:43:34;15.37;;;13.80;;
5379;SDS011;2713;42.680;23.310;2022-08-19T03:46:02;13.30;;;11.10;;
5379;SDS011;2713;42.680;23.310;2022-08-19T03:48:30;13.80;;;11.33;;
5379;SDS011;2713;42.680;23.310;2022-08-19T03:50:58;14.63;;;12.00;;
5379;SDS011;2713;42.680;23.310;2022-08-19T03:53:27;14.03;;;12.20;;
5379;SDS011;2713;42.680;23.310;2022-08-19T03:55:55;12.30;;;11.10;;
5379;SDS011;2713;42.680;23.310;2022-08-19T03:58:24;12.20;;;10.83;;
5379;SDS011;2713;42.680;23.310;2022-08-19T04:00:52;13.60;;;12.30;;
5379;SDS011;2713;42.680;23.310;2022-08-19T04:03:19;13.67;;;11.07;;
5379;SDS011;2713;42.680;23.310;2022-08-19T04:05:46;15.00;;;11.43;;
5379;SDS011;2713;42.680;23.310;2022-08-19T04:08:13;13.17;;;11.50;;
5379;SDS011;2713;42.680;23.310;2022-08-19T04:10:47;13.30;;;11.00;;
5379;SDS011;2713;42.680;23.310;2022-08-19T04:13:15;13.50;;;11.93;;
5379;SDS011;2713;42.680;23.310;2022-08-19T04:15:43;14.27;;;11.67;;
5379;SDS011;2713;42.680;23.310;2022-08-19T04:18:11;12.93;;;11.60;;
5379;SDS011;2713;42.680;23.310;2022-08-19T04:20:43;12.23;;;10.93;;
5379;SDS011;2713;42.680;23.310;2022-08-19T04:23:11;12.90;;;11.40;;
5379;SDS011;2713;42.680;23.310;2022-08-19T04:25:38;15.80;;;11.67;;
5379;SDS011;2713;42.680;23.310;2022-08-19T04:28:09;18.03;;;11.70;;
5379;SDS011;2713;42.680;23.310;2022-08-19T04:30:39;17.73;;;12.10;;
5379;SDS011;2713;42.680;23.310;2022-08-19T04:33:08;13.70;;;11.70;;
5379;SDS011;2713;42.680;23.310;2022-08-19T04:35:36;13.07;;;11.20;;
5379;SDS011;2713;42.680;23.310;2022-08-19T04:38:04;17.93;;;11.63;;
5379;SDS011;2713;42.680;23.310;2022-08-19T04:40:31;15.17;;;12.50;;
5379;SDS011;2713;42.680;23.310;2022-08-19T04:43:18;16.03;;;12.40;;
5379;SDS011;2713;42.680;23.310;2022-08-19T04:45:45;13.77;;;12.27;;
5379;SDS011;2713;42.680;23.310;2022-08-19T04:48:12;18.83;;;13.70;;
5379;SDS011;2713;42.680;23.310;2022-08-19T04:50:40;14.47;;;12.93;;
5379;SDS011;2713;42.680;23.310;2022-08-19T04:53:09;23.37;;;13.97;;
5379;SDS011;2713;42.680;23.310;2022-08-19T04:55:38;15.77;;;12.63;;
5379;SDS011;2713;42.680;23.310;2022-08-19T04:58:06;16.60;;;14.00;;
5379;SDS011;2713;42.680;23.310;2022-08-19T05:00:36;14.73;;;13.07;;
5379;SDS011;2713;42.680;23.310;2022-08-19T05:03:04;19.00;;;14.00;;
5379;SDS011;2713;42.680;23.310;2022-08-19T05:05:32;17.70;;;13.10;;
5379;SDS011;2713;42.680;23.310;2022-08-19T05:07:59;19.33;;;13.73;;
5379;SDS011;2713;42.680;23.310;2022-08-19T05:10:26;16.30;;;13.40;;
5379;SDS011;2713;42.680;23.310;2022-08-19T05:12:53;15.40;;;13.23;;
5379;SDS011;2713;42.680;23.310;2022-08-19T05:15:19;15.90;;;14.20;;
5379;SDS011;2713;42.680;23.310;2022-08-19T05:17:48;18.73;;;14.53;;
5379;SDS011;2713;42.680;23.310;2022-08-19T05:20:29;16.50;;;14.80;;
5379;SDS011;2713;42.680;23.310;2022-08-19T05:23:12;15.83;;;14.20;;
5379;SDS011;2713;42.680;23.310;2022-08-19T05:25:41;16.53;;;13.70;;
5379;SDS011;2713;42.680;23.310;2022-08-19T05:28:08;17.93;;;15.30;;
5379;SDS011;2713;42.680;23.310;2022-08-19T05:30:35;16.10;;;14.40;;
5379;SDS011;2713;42.680;23.310;2022-08-19T05:33:03;20.00;;;15.13;;
5379;SDS011;2713;42.680;23.310;2022-08-19T05:35:30;22.10;;;14.43;;
5379;SDS011;2713;42.680;23.310;2022-08-19T05:37:57;16.57;;;14.33;;
5379;SDS011;2713;42.680;23.310;2022-08-19T05:40:24;16.90;;;14.80;;
5379;SDS011;2713;42.680;23.310;2022-08-19T05:42:50;21.07;;;14.33;;
5379;SDS011;2713;42.680;23.310;2022-08-19T05:45:18;17.17;;;15.17;;
5379;SDS011;2713;42.680;23.310;2022-08-19T05:47:47;20.03;;;15.00;;
5379;SDS011;2713;42.680;23.310;2022-08-19T05:50:15;17.00;;;14.77;;
5379;SDS011;2713;42.680;23.310;2022-08-19T05:52:42;17.67;;;14.60;;
5379;SDS011;2713;42.680;23.310;2022-08-19T05:55:10;16.50;;;13.90;;
5379;SDS011;2713;42.680;23.310;2022-08-19T05:57:37;16.53;;;14.43;;
5379;SDS011;2713;42.680;23.310;2022-08-19T06:00:04;16.70;;;13.40;;
5379;SDS011;2713;42.680;23.310;2022-08-19T06:02:37;17.10;;;14.47;;
5379;SDS011;2713;42.680;23.310;2022-08-19T06:05:04;17.03;;;15.30;;
5379;SDS011;2713;42.680;23.310;2022-08-19T06:07:35;17.60;;;14.10;;
5379;SDS011;2713;42.680;23.310;2022-08-19T06:10:03;20.20;;;16.03;;
5379;SDS011;2713;42.680;23.310;2022-08-19T06:12:31;17.03;;;14.50;;
5379;SDS011;2713;42.680;23.310;2022-08-19T06:15:00;18.00;;;14.83;;
5379;SDS011;2713;42.680;23.310;2022-08-19T06:17:29;18.60;;;15.63;;
5379;SDS011;2713;42.680;23.310;2022-08-19T06:19:56;15.00;;;13.50;;
5379;SDS011;2713;42.680;23.310;2022-08-19T06:22:23;16.53;;;14.20;;
5379;SDS011;2713;42.680;23.310;2022-08-19T06:24:51;17.03;;;13.40;;
5379;SDS011;2713;42.680;23.310;2022-08-19T06:27:19;18.20;;;16.30;;
5379;SDS011;2713;42.680;23.310;2022-08-19T06:29:45;15.53;;;13.70;;
5379;SDS011;2713;42.680;23.310;2022-08-19T06:32:14;15.73;;;13.83;;
5379;SDS011;2713;42.680;23.310;2022-08-19T06:34:43;15.87;;;14.20;;
5379;SDS011;2713;42.680;23.310;2022-08-19T06:37:10;14.13;;;12.73;;
5379;SDS011;2713;42.680;23.310;2022-08-19T06:39:38;16.17;;;14.47;;
5379;SDS011;2713;42.680;23.310;2022-08-19T06:42:08;15.00;;;12.97;;
5379;SDS011;2713;42.680;23.310;2022-08-19T06:44:38;13.93;;;12.53;;
5379;SDS011;2713;42.680;23.310;2022-08-19T06:47:07;13.23;;;11.93;;
5379;SDS011;2713;42.680;23.310;2022-08-19T06:49:36;14.40;;;12.90;;
5379;SDS011;2713;42.680;23.310;2022-08-19T06:52:04;30.20;;;15.10;;
5379;SDS011;2713;42.680;23.310;2022-08-19T06:54:31;16.93;;;12.80;;
5379;SDS011;2713;42.680;23.310;2022-08-19T06:57:00;14.10;;;12.70;;
5379;SDS011;2713;42.680;23.310;2022-08-19T06:59:29;13.57;;;12.17;;
5379;SDS011;2713;42.680;23.310;2022-08-19T07:01:58;13.07;;;11.87;;
5379;SDS011;2713;42.680;23.310;2022-08-19T07:04:27;15.07;;;12.40;;
5379;SDS011;2713;42.680;23.310;2022-08-19T07:06:56;13.90;;;12.50;;
5379;SDS011;2713;42.680;23.310;2022-08-19T07:09:24;16.90;;;15.30;;
5379;SDS011;2713;42.680;23.310;2022-08-19T07:11:52;14.30;;;12.30;;
5379;SDS011;2713;42.680;23.310;2022-08-19T07:14:20;15.27;;;12.20;;
5379;SDS011;2713;42.680;23.310;2022-08-19T07:16:50;12.10;;;11.00;;
5379;SDS011;2713;42.680;23.310;2022-08-19T07:19:20;13.50;;;12.20;;
5379;SDS011;2713;42.680;23.310;2022-08-19T07:21:48;12.47;;;11.20;;
5379;SDS011;2713;42.680;23.310;2022-08-19T07:24:18;13.80;;;12.40;;
5379;SDS011;2713;42.680;23.310;2022-08-19T07:26:45;12.83;;;11.60;;
5379;SDS011;2713;42.680;23.310;2022-08-19T07:29:12;15.20;;;13.70;;
5379;SDS011;2713;42.680;23.310;2022-08-19T07:31:40;12.57;;;11.27;;
5379;SDS011;2713;42.680;23.310;2022-08-19T07:34:09;17.13;;;11.93;;
5379;SDS011;2713;42.680;23.310;2022-08-19T07:36:39;11.90;;;10.80;;
5379;SDS011;2713;42.680;23.310;2022-08-19T07:39:08;12.90;;;11.73;;
5379;SDS011;2713;42.680;23.310;2022-08-19T07:41:37;13.10;;;11.80;;
5379;SDS011;2713;42.680;23.310;2022-08-19T07:44:04;13.70;;;12.40;;
5379;SDS011;2713;42.680;23.310;2022-08-19T07:46:33;16.50;;;12.10;;
5379;SDS011;2713;42.680;23.310;2022-08-19T07:49:05;13.20;;;11.87;;
5379;SDS011;2713;42.680;23.310;2022-08-19T07:51:34;14.00;;;10.50;;
5379;SDS011;2713;42.680;23.310;2022-08-19T07:54:01;15.37;;;11.77;;
5379;SDS011;2713;42.680;23.310;2022-08-19T07:56:28;16.73;;;11.30;;
5379;SDS011;2713;42.680;23.310;2022-08-19T07:58:55;13.53;;;10.77;;
5379;SDS011;2713;42.680;23.310;2022-08-19T08:01:23;12.20;;;10.50;;
5379;SDS011;2713;42.680;23.310;2022-08-19T08:03:52;14.20;;;10.37;;
5379;SDS011;2713;42.680;23.310;2022-08-19T08:06:38;11.80;;;10.17;;
5379;SDS011;2713;42.680;23.310;2022-08-19T08:09:24;12.70;;;10.80;;
5379;SDS011;2713;42.680;23.310;2022-08-19T08:11:54;10.87;;;9.90;;
5379;SDS011;2713;42.680;23.310;2022-08-19T08:14:25;12.60;;;11.40;;
5379;SDS011;2713;42.680;23.310;2022-08-19T08:16:54;17.87;;;11.40;;
5379;SDS011;2713;42.680;23.310;2022-08-19T08:19:21;12.93;;;11.70;;
5379;SDS011;2713;42.680;23.310;2022-08-19T08:21:51;11.27;;;10.13;;
5379;SDS011;2713;42.680;23.310;2022-08-19T08:24:19;11.17;;;10.17;;
5379;SDS011;2713;42.680;23.310;2022-08-19T08:26:46;10.73;;;9.73;;
5379;SDS011;2713;42.680;23.310;2022-08-19T08:29:13;10.90;;;9.90;;
5379;SDS011;2713;42.680;23.310;2022-08-19T08:31:41;15.27;;;13.67;;
5379;SDS011;2713;42.680;23.310;2022-08-19T08:34:10;13.00;;;9.63;;
5379;SDS011;2713;42.680;23.310;2022-08-19T08:36:38;10.93;;;9.73;;
5379;SDS011;2713;42.680;23.310;2022-08-19T08:39:08;12.70;;;11.47;;
5379;SDS011;2713;42.680;23.310;2022-08-19T08:41:39;10.93;;;9.83;;
5379;SDS011;2713;42.680;23.310;2022-08-19T08:44:13;11.50;;;10.07;;
5379;SDS011;2713;42.680;23.310;2022-08-19T08:46:45;15.83;;;10.70;;
5379;SDS011;2713;42.680;23.310;2022-08-19T08:49:18;16.03;;;10.97;;
5379;SDS011;2713;42.680;23.310;2022-08-19T08:51:52;14.17;;;10.73;;
5379;SDS011;2713;42.680;23.310;2022-08-19T08:54:32;12.17;;;10.60;;
5379;SDS011;2713;42.680;23.310;2022-08-19T08:57:03;10.80;;;9.70;;
5379;SDS011;2713;42.680;23.310;2022-08-19T08:59:34;15.80;;;10.90;;
5379;SDS011;2713;42.680;23.310;2022-08-19T09:02:05;13.40;;;10.70;;
5379;SDS011;2713;42.680;23.310;2022-08-19T09:04:33;9.90;;;9.10;;
5379;SDS011;2713;42.680;23.310;2022-08-19T09:07:06;8.77;;;7.97;;
5379;SDS011;2713;42.680;23.310;2022-08-19T09:09:48;9.00;;;8.30;;
5379;SDS011;2713;42.680;23.310;2022-08-19T09:12:19;9.67;;;8.67;;
5379;SDS011;2713;42.680;23.310;2022-08-19T09:14:53;8.20;;;7.50;;
5379;SDS011;2713;42.680;23.310;2022-08-19T09:17:26;8.77;;;8.07;;
5379;SDS011;2713;42.680;23.310;2022-08-19T09:19:57;7.80;;;6.83;;
5379;SDS011;2713;42.680;23.310;2022-08-19T09:22:30;7.53;;;6.77;;
5379;SDS011;2713;42.680;23.310;2022-08-19T09:24:58;8.93;;;7.17;;
5379;SDS011;2713;42.680;23.310;2022-08-19T09:27:26;7.80;;;7.00;;
5379;SDS011;2713;42.680;23.310;2022-08-19T09:29:54;8.33;;;7.13;;
5379;SDS011;2713;42.680;23.310;2022-08-19T09:32:21;9.27;;;8.37;;
5379;SDS011;2713;42.680;23.310;2022-08-19T09:34:49;7.17;;;6.57;;
5379;SDS011;2713;42.680;23.310;2022-08-19T09:37:19;8.40;;;7.60;;
5379;SDS011;2713;42.680;23.310;2022-08-19T09:39:46;6.77;;;6.17;;
5379;SDS011;2713;42.680;23.310;2022-08-19T09:42:15;9.10;;;6.67;;
5379;SDS011;2713;42.680;23.310;2022-08-19T09:44:42;7.33;;;6.63;;
5379;SDS011;2713;42.680;23.310;2022-08-19T09:47:10;6.97;;;6.37;;
5379;SDS011;2713;42.680;23.310;2022-08-19T09:49:38;6.37;;;5.77;;
5379;SDS011;2713;42.680;23.310;2022-08-19T09:52:06;8.67;;;7.87;;
5379;SDS011;2713;42.680;23.310;2022-08-19T09:54:34;6.30;;;5.80;;
5379;SDS011;2713;42.680;23.310;2022-08-19T09:57:01;6.70;;;6.20;;
5379;SDS011;2713;42.680;23.310;2022-08-19T09:59:29;7.13;;;6.53;;
5379;SDS011;2713;42.680;23.310;2022-08-19T10:01:56;7.70;;;5.87;;
5379;SDS011;2713;42.680;23.310;2022-08-19T10:04:23;7.57;;;6.37;;
5379;SDS011;2713;42.680;23.310;2022-08-19T10:07:10;6.60;;;6.00;;
5379;SDS011;2713;42.680;23.310;2022-08-19T10:09:37;6.37;;;5.87;;
5379;SDS011;2713;42.680;23.310;2022-08-19T10:12:06;6.87;;;6.27;;
5379;SDS011;2713;42.680;23.310;2022-08-19T10:14:35;7.27;;;6.20;;
5379;SDS011;2713;42.680;23.310;2022-08-19T10:17:02;7.10;;;6.40;;
5379;SDS011;2713;42.680;23.310;2022-08-19T10:19:29;7.60;;;6.83;;
5379;SDS011;2713;42.680;23.310;2022-08-19T10:22:02;7.27;;;6.40;;
5379;SDS011;2713;42.680;23.310;2022-08-19T10:24:29;7.27;;;6.67;;
5379;SDS011;2713;42.680;23.310;2022-08-19T10:26:57;6.20;;;5.80;;
5379;SDS011;2713;42.680;23.310;2022-08-19T10:29:24;6.40;;;5.83;;
5379;SDS011;2713;42.680;23.310;2022-08-19T10:31:54;9.03;;;8.10;;
5379;SDS011;2713;42.680;23.310;2022-08-19T10:34:21;7.73;;;7.13;;
5379;SDS011;2713;42.680;23.310;2022-08-19T10:36:49;8.87;;;8.00;;
5379;SDS011;2713;42.680;23.310;2022-08-19T10:39:16;8.40;;;7.20;;
5379;SDS011;2713;42.680;23.310;2022-08-19T10:41:43;10.93;;;6.93;;
5379;SDS011;2713;42.680;23.310;2022-08-19T10:44:11;7.50;;;6.80;;
5379;SDS011;2713;42.680;23.310;2022-08-19T10:46:39;7.47;;;6.77;;
5379;SDS011;2713;42.680;23.310;2022-08-19T10:49:10;7.47;;;6.90;;
5379;SDS011;2713;42.680;23.310;2022-08-19T10:51:38;7.80;;;7.10;;
5379;SDS011;2713;42.680;23.310;2022-08-19T10:54:22;8.57;;;7.77;;
5379;SDS011;2713;42.680;23.310;2022-08-19T10:57:09;8.13;;;7.17;;
5379;SDS011;2713;42.680;23.310;2022-08-19T10:59:35;7.73;;;7.13;;
5379;SDS011;2713;42.680;23.310;2022-08-19T11:02:03;7.77;;;7.10;;
5379;SDS011;2713;42.680;23.310;2022-08-19T11:04:33;7.97;;;7.17;;
5379;SDS011;2713;42.680;23.310;2022-08-19T11:07:00;8.67;;;7.77;;
5379;SDS011;2713;42.680;23.310;2022-08-19T11:09:28;9.13;;;7.23;;
5379;SDS011;2713;42.680;23.310;2022-08-19T11:11:55;8.43;;;7.73;;
5379;SDS011;2713;42.680;23.310;2022-08-19T11:14:22;7.80;;;7.20;;
5379;SDS011;2713;42.680;23.310;2022-08-19T11:16:50;7.90;;;7.30;;
5379;SDS011;2713;42.680;23.310;2022-08-19T11:19:21;7.83;;;7.23;;
5379;SDS011;2713;42.680;23.310;2022-08-19T11:21:50;8.50;;;7.30;;
5379;SDS011;2713;42.680;23.310;2022-08-19T11:24:20;8.60;;;8.00;;
5379;SDS011;2713;42.680;23.310;2022-08-19T11:26:49;9.23;;;6.70;;
5379;SDS011;2713;42.680;23.310;2022-08-19T11:29:18;7.90;;;7.30;;
5379;SDS011;2713;42.680;23.310;2022-08-19T11:31:46;8.63;;;7.73;;
5379;SDS011;2713;42.680;23.310;2022-08-19T11:34:15;8.87;;;7.77;;
5379;SDS011;2713;42.680;23.310;2022-08-19T11:36:44;9.00;;;8.20;;
5379;SDS011;2713;42.680;23.310;2022-08-19T11:39:14;8.27;;;7.57;;
5379;SDS011;2713;42.680;23.310;2022-08-19T11:41:43;8.37;;;7.57;;
5379;SDS011;2713;42.680;23.310;2022-08-19T11:44:10;7.93;;;7.23;;
5379;SDS011;2713;42.680;23.310;2022-08-19T11:46:39;9.37;;;8.53;;
5379;SDS011;2713;42.680;23.310;2022-08-19T11:49:10;9.03;;;7.87;;
5379;SDS011;2713;42.680;23.310;2022-08-19T11:51:38;9.00;;;8.20;;
5379;SDS011;2713;42.680;23.310;2022-08-19T11:54:07;8.60;;;7.80;;
5379;SDS011;2713;42.680;23.310;2022-08-19T11:56:36;8.77;;;7.87;;
5379;SDS011;2713;42.680;23.310;2022-08-19T11:59:03;8.10;;;7.10;;
5379;SDS011;2713;42.680;23.310;2022-08-19T12:01:30;8.80;;;8.10;;
5379;SDS011;2713;42.680;23.310;2022-08-19T12:03:57;8.50;;;7.67;;
5379;SDS011;2713;42.680;23.310;2022-08-19T12:06:25;8.83;;;8.03;;
5379;SDS011;2713;42.680;23.310;2022-08-19T12:08:54;9.27;;;7.60;;
5379;SDS011;2713;42.680;23.310;2022-08-19T12:11:22;8.90;;;8.00;;
5379;SDS011;2713;42.680;23.310;2022-08-19T12:13:51;8.87;;;7.60;;
5379;SDS011;2713;42.680;23.310;2022-08-19T12:16:19;8.57;;;7.93;;
5379;SDS011;2713;42.680;23.310;2022-08-19T12:18:48;8.83;;;8.13;;
5379;SDS011;2713;42.680;23.310;2022-08-19T12:21:17;8.70;;;7.80;;
5379;SDS011;2713;42.680;23.310;2022-08-19T12:23:47;8.60;;;7.80;;
5379;SDS011;2713;42.680;23.310;2022-08-19T12:26:15;9.00;;;8.13;;
5379;SDS011;2713;42.680;23.310;2022-08-19T12:28:42;9.03;;;8.23;;
5379;SDS011;2713;42.680;23.310;2022-08-19T12:31:11;8.70;;;7.90;;
5379;SDS011;2713;42.680;23.310;2022-08-19T12:33:38;9.10;;;8.07;;
5379;SDS011;2713;42.680;23.310;2022-08-19T12:36:07;9.10;;;8.30;;
5379;SDS011;2713;42.680;23.310;2022-08-19T12:38:36;8.90;;;8.10;;
5379;SDS011;2713;42.680;23.310;2022-08-19T12:41:04;8.90;;;8.20;;
5379;SDS011;2713;42.680;23.310;2022-08-19T12:43:32;8.73;;;7.93;;
5379;SDS011;2713;42.680;23.310;2022-08-19T12:46:00;15.70;;;9.07;;
5379;SDS011;2713;42.680;23.310;2022-08-19T12:48:29;10.17;;;9.10;;
5379;SDS011;2713;42.680;23.310;2022-08-19T12:50:56;9.53;;;8.70;;
5379;SDS011;2713;42.680;23.310;2022-08-19T12:53:23;7.90;;;7.23;;
5379;SDS011;2713;42.680;23.310;2022-08-19T12:55:54;8.37;;;7.57;;
5379;SDS011;2713;42.680;23.310;2022-08-19T12:58:22;8.57;;;7.87;;
5379;SDS011;2713;42.680;23.310;2022-08-19T13:00:49;8.10;;;7.07;;
5379;SDS011;2713;42.680;23.310;2022-08-19T13:03:16;8.50;;;7.80;;
5379;SDS011;2713;42.680;23.310;2022-08-19T13:05:44;8.17;;;7.43;;
5379;SDS011;2713;42.680;23.310;2022-08-19T13:08:11;8.20;;;7.40;;
5379;SDS011;2713;42.680;23.310;2022-08-19T13:10:38;7.20;;;6.53;;
5379;SDS011;2713;42.680;23.310;2022-08-19T13:13:05;8.13;;;7.00;;
5379;SDS011;2713;42.680;23.310;2022-08-19T13:15:35;9.73;;;7.57;;
5379;SDS011;2713;42.680;23.310;2022-08-19T13:18:04;7.77;;;7.10;;
5379;SDS011;2713;42.680;23.310;2022-08-19T13:20:34;8.30;;;7.60;;
5379;SDS011;2713;42.680;23.310;2022-08-19T13:23:03;7.87;;;7.27;;
5379;SDS011;2713;42.680;23.310;2022-08-19T13:25:30;10.90;;;7.70;;
5379;SDS011;2713;42.680;23.310;2022-08-19T13:27:57;8.80;;;7.70;;
5379;SDS011;2713;42.680;23.310;2022-08-19T13:30:25;7.90;;;7.20;;
5379;SDS011;2713;42.680;23.310;2022-08-19T13:33:18;9.23;;;8.33;;
5379;SDS011;2713;42.680;23.310;2022-08-19T13:35:47;8.63;;;7.37;;
5379;SDS011;2713;42.680;23.310;2022-08-19T13:38:17;11.03;;;8.20;;
5379;SDS011;2713;42.680;23.310;2022-08-19T13:40:45;7.90;;;7.27;;
5379;SDS011;2713;42.680;23.310;2022-08-19T13:43:13;8.83;;;8.00;;
5379;SDS011;2713;42.680;23.310;2022-08-19T13:45:40;7.93;;;7.23;;
5379;SDS011;2713;42.680;23.310;2022-08-19T13:48:07;8.63;;;7.70;;
5379;SDS011;2713;42.680;23.310;2022-08-19T13:50:35;8.53;;;7.70;;
5379;SDS011;2713;42.680;23.310;2022-08-19T13:53:06;8.70;;;7.87;;
5379;SDS011;2713;42.680;23.310;2022-08-19T13:55:36;8.93;;;8.13;;
5379;SDS011;2713;42.680;23.310;2022-08-19T13:58:03;9.67;;;8.30;;
5379;SDS011;2713;42.680;23.310;2022-08-19T14:00:31;8.37;;;7.57;;
5379;SDS011;2713;42.680;23.310;2022-08-19T14:02:59;9.00;;;8.00;;
5379;SDS011;2713;42.680;23.310;2022-08-19T14:05:27;9.37;;;8.40;;
5379;SDS011;2713;42.680;23.310;2022-08-19T14:07:55;8.77;;;7.93;;
5379;SDS011;2713;42.680;23.310;2022-08-19T14:10:23;8.40;;;7.60;;
5379;SDS011;2713;42.680;23.310;2022-08-19T14:12:53;8.77;;;7.93;;
5379;SDS011;2713;42.680;23.310;2022-08-19T14:15:23;9.63;;;7.90;;
5379;SDS011;2713;42.680;23.310;2022-08-19T14:17:51;8.10;;;7.30;;
5379;SDS011;2713;42.680;23.310;2022-08-19T14:20:18;8.60;;;7.77;;
5379;SDS011;2713;42.680;23.310;2022-08-19T14:22:46;8.87;;;7.70;;
5379;SDS011;2713;42.680;23.310;2022-08-19T14:25:14;9.93;;;7.83;;
5379;SDS011;2713;42.680;23.310;2022-08-19T14:27:44;8.13;;;7.43;;
5379;SDS011;2713;42.680;23.310;2022-08-19T14:30:13;9.90;;;7.80;;
5379;SDS011;2713;42.680;23.310;2022-08-19T14:32:43;9.33;;;8.53;;
5379;SDS011;2713;42.680;23.310;2022-08-19T14:35:10;8.70;;;7.30;;
5379;SDS011;2713;42.680;23.310;2022-08-19T14:37:39;9.20;;;8.30;;
5379;SDS011;2713;42.680;23.310;2022-08-19T14:40:07;8.50;;;7.80;;
5379;SDS011;2713;42.680;23.310;2022-08-19T14:42:36;9.40;;;8.40;;
5379;SDS011;2713;42.680;23.310;2022-08-19T14:45:04;9.37;;;8.57;;
5379;SDS011;2713;42.680;23.310;2022-08-19T14:47:33;8.97;;;8.17;;
5379;SDS011;2713;42.680;23.310;2022-08-19T14:50:00;9.67;;;8.60;;
5379;SDS011;2713;42.680;23.310;2022-08-19T14:52:27;9.77;;;8.83;;
5379;SDS011;2713;42.680;23.310;2022-08-19T14:54:54;8.80;;;8.10;;